Time;durP1;ratioP1;P1;durP2;ratioP2;P2;SDS_P1;SDS_P2;PMS_P1;PMS_P2;Temp;Humidity;BMP_temperature;BMP_pressure;BME280_temperature;BME280_humidity;BME280_pressure;Samples;Min_cycle;Max_cycle;Signal;HPM_P1;HPM_P2
2021/01/29 00:00:58;;;;;;;51.73;18.03;;;4.20;99.90;;;;;;4966580;28;20054;-69
2021/01/29 00:03:28;;;;;;;46.97;17.40;;;4.10;99.90;;;;;;4966046;28;20451;-70
2021/01/29 00:05:58;;;;;;;50.87;18.57;;;4.10;99.90;;;;;;4973312;28;20118;-70
2021/01/29 00:08:25;;;;;;;46.70;17.10;;;4.10;99.90;;;;;;4973350;28;20058;-70
2021/01/29 00:10:52;;;;;;;49.77;18.07;;;4.20;99.90;;;;;;4970913;28;20093;-69
2021/01/29 00:13:20;;;;;;;46.40;17.03;;;4.20;99.90;;;;;;4963376;28;20062;-70
2021/01/29 00:15:47;;;;;;;52.93;19.33;;;4.10;99.90;;;;;;4974449;28;20041;-70
2021/01/29 00:18:15;;;;;;;55.63;18.10;;;4.10;99.90;;;;;;4982376;28;20057;-70
2021/01/29 00:20:42;;;;;;;43.17;17.20;;;4.20;99.90;;;;;;4979082;28;20046;-69
2021/01/29 00:23:09;;;;;;;49.33;17.87;;;4.20;99.90;;;;;;4971301;28;20054;-70
2021/01/29 00:25:39;;;;;;;41.23;16.73;;;4.20;99.90;;;;;;4967547;28;20054;-69
2021/01/29 00:28:06;;;;;;;53.23;19.03;;;4.20;99.90;;;;;;4977841;28;20053;-71
2021/01/29 00:30:33;;;;;;;39.97;17.23;;;4.20;99.90;;;;;;4982811;28;20041;-70
2021/01/29 00:33:02;;;;;;;54.47;18.47;;;4.20;99.90;;;;;;4972700;28;20051;-69
2021/01/29 00:35:30;;;;;;;49.00;17.77;;;4.20;99.90;;;;;;4978444;28;20067;-69
2021/01/29 00:37:58;;;;;;;40.83;16.40;;;4.20;99.90;;;;;;4974837;28;20050;-70
2021/01/29 00:40:25;;;;;;;52.07;18.40;;;4.20;99.90;;;;;;4980496;28;20523;-69
2021/01/29 00:42:51;;;;;;;50.13;19.33;;;4.20;99.90;;;;;;4977391;28;20057;-69
2021/01/29 00:45:22;;;;;;;45.70;17.50;;;4.20;99.90;;;;;;4974336;28;20051;-69
2021/01/29 00:47:49;;;;;;;43.43;17.40;;;4.20;99.90;;;;;;4976316;28;20074;-69
2021/01/29 00:50:17;;;;;;;29.03;13.73;;;4.20;99.90;;;;;;4976936;28;20468;-69
2021/01/29 00:52:43;;;;;;;22.50;11.87;;;4.20;99.90;;;;;;4977037;28;20046;-69
2021/01/29 00:55:11;;;;;;;22.87;10.03;;;4.20;99.90;;;;;;4979348;28;20047;-69
2021/01/29 00:57:38;;;;;;;23.30;10.00;;;4.30;99.90;;;;;;4974545;28;20043;-71
2021/01/29 01:00:08;;;;;;;24.97;10.50;;;4.30;99.90;;;;;;4975380;28;20047;-71
2021/01/29 01:02:35;;;;;;;21.50;10.17;;;4.30;99.90;;;;;;4975277;28;20093;-70
2021/01/29 01:05:01;;;;;;;22.93;10.33;;;4.30;99.90;;;;;;4975063;28;20089;-70
2021/01/29 01:07:29;;;;;;;20.30;9.90;;;4.30;99.90;;;;;;4976388;28;20058;-71
2021/01/29 01:09:56;;;;;;;26.83;11.80;;;4.20;99.90;;;;;;4974569;28;20050;-68
2021/01/29 01:12:22;;;;;;;25.23;11.83;;;4.20;99.90;;;;;;4973004;28;20284;-69
2021/01/29 01:14:49;;;;;;;24.93;11.97;;;4.20;99.90;;;;;;4977714;28;20046;-70
2021/01/29 01:17:16;;;;;;;27.17;12.00;;;4.20;99.90;;;;;;4978802;28;20085;-70
2021/01/29 01:19:43;;;;;;;28.00;12.67;;;4.10;99.90;;;;;;4980882;28;20070;-69
2021/01/29 01:22:10;;;;;;;30.43;12.83;;;4.20;99.90;;;;;;4979093;28;20050;-69
2021/01/29 01:24:40;;;;;;;30.47;13.83;;;4.20;99.90;;;;;;4978194;28;20046;-69
2021/01/29 01:27:08;;;;;;;28.67;13.70;;;4.20;99.90;;;;;;4988820;28;20060;-69
2021/01/29 01:29:34;;;;;;;26.90;12.33;;;4.20;99.90;;;;;;4991505;28;20043;-69
2021/01/29 01:32:01;;;;;;;25.67;11.33;;;4.20;99.90;;;;;;4980004;28;20042;-69
2021/01/29 01:34:28;;;;;;;25.13;11.50;;;4.20;99.90;;;;;;4980237;28;20042;-69
2021/01/29 01:36:54;;;;;;;24.87;11.50;;;4.20;99.90;;;;;;4980797;28;20051;-71
2021/01/29 01:39:22;;;;;;;23.87;10.23;;;4.20;99.90;;;;;;4988775;28;20050;-70
2021/01/29 01:41:51;;;;;;;27.43;11.77;;;4.20;99.90;;;;;;4988069;28;20054;-70
2021/01/29 01:44:25;;;;;;;26.03;11.43;;;4.10;99.90;;;;;;4986386;28;20081;-69
2021/01/29 01:46:53;;;;;;;29.07;12.20;;;4.10;99.90;;;;;;4987417;28;20046;-70
2021/01/29 01:49:22;;;;;;;26.60;11.83;;;4.10;99.90;;;;;;4987835;28;20057;-69
2021/01/29 01:51:53;;;;;;;24.73;11.13;;;4.00;99.90;;;;;;4989096;28;20058;-69
2021/01/29 01:54:24;;;;;;;27.33;10.87;;;4.10;99.90;;;;;;4987459;28;20488;-68
2021/01/29 01:56:58;;;;;;;28.67;11.83;;;4.10;99.90;;;;;;4988795;28;20397;-69
2021/01/29 01:59:34;;;;;;;23.80;10.90;;;4.10;99.90;;;;;;4987496;28;20058;-69
2021/01/29 02:02:03;;;;;;;27.08;11.65;;;4.10;99.90;;;;;;5001889;28;20050;-69
2021/01/29 02:04:33;;;;;;;25.03;10.47;;;4.00;99.90;;;;;;4999787;28;20559;-69
2021/01/29 02:07:07;;;;;;;35.80;13.63;;;4.00;99.90;;;;;;4988105;28;20042;-69
2021/01/29 02:09:39;;;;;;;27.83;12.53;;;4.10;99.90;;;;;;4988610;28;20046;-70
2021/01/29 02:12:08;;;;;;;26.40;12.73;;;4.00;99.90;;;;;;4986613;28;20050;-70
2021/01/29 02:14:34;;;;;;;31.70;12.87;;;4.00;99.90;;;;;;4985868;28;20054;-71
2021/01/29 02:17:07;;;;;;;30.70;13.60;;;4.00;99.90;;;;;;4988184;28;20492;-71
2021/01/29 02:20:12;;;;;;;30.33;13.37;;;4.10;99.90;;;;;;4987575;28;20277;-69
2021/01/29 02:23:18;;;;;;;29.33;12.97;;;4.00;99.90;;;;;;4986245;28;20058;-71
2021/01/29 02:26:17;;;;;;;27.20;12.97;;;4.00;99.90;;;;;;4987389;28;20141;-71
2021/01/29 02:29:16;;;;;;;32.97;13.80;;;4.00;99.90;;;;;;4987519;28;20062;-69
2021/01/29 02:31:58;;;;;;;33.20;13.77;;;4.00;99.90;;;;;;4974182;28;20060;-69
2021/01/29 02:34:55;;;;;;;29.43;12.87;;;3.90;99.90;;;;;;4986278;28;20054;-71
2021/01/29 02:38:15;;;;;;;26.80;12.00;;;3.90;99.90;;;;;;4988659;28;20057;-69
2021/01/29 02:40:50;;;;;;;27.13;12.07;;;4.00;99.90;;;;;;4932551;29;20055;-70
2021/01/29 02:43:43;;;;;;;30.53;13.60;;;4.00;99.90;;;;;;4967513;28;20054;-70
2021/01/29 02:46:17;;;;;;;28.37;12.77;;;4.00;99.90;;;;;;4978621;28;20047;-69
2021/01/29 02:48:56;;;;;;;29.47;12.87;;;4.00;99.90;;;;;;4968236;28;20054;-68
2021/01/29 02:51:27;;;;;;;26.00;12.13;;;4.30;99.90;;;;;;4968115;28;20051;-69
2021/01/29 02:54:00;;;;;;;25.50;10.90;;;4.10;99.90;;;;;;4971909;28;20050;-71
2021/01/29 02:56:32;;;;;;;23.80;11.03;;;4.10;99.90;;;;;;4977070;28;20081;-68
2021/01/29 02:59:03;;;;;;;21.67;11.23;;;4.10;99.90;;;;;;4967312;28;20039;-69
2021/01/29 03:01:36;;;;;;;21.40;10.90;;;4.10;99.90;;;;;;4974710;28;20046;-70
2021/01/29 03:04:06;;;;;;;21.57;10.47;;;4.10;99.90;;;;;;4967072;28;20046;-69
2021/01/29 03:06:38;;;;;;;19.37;9.73;;;4.00;99.90;;;;;;4977350;28;20420;-70
2021/01/29 03:09:13;;;;;;;21.63;10.87;;;4.00;99.90;;;;;;4976495;28;20512;-70
2021/01/29 03:11:47;;;;;;;20.83;10.20;;;4.10;99.90;;;;;;4967074;28;20508;-70
2021/01/29 03:14:18;;;;;;;21.53;10.63;;;4.10;99.90;;;;;;4972795;28;20050;-69
2021/01/29 03:16:50;;;;;;;21.33;10.23;;;4.00;99.90;;;;;;4977134;28;20056;-68
2021/01/29 03:19:24;;;;;;;23.20;10.57;;;4.10;99.90;;;;;;4977682;28;20129;-70
2021/01/29 03:21:57;;;;;;;27.60;11.30;;;4.00;99.90;;;;;;4977994;28;20105;-68
2021/01/29 03:24:32;;;;;;;21.83;10.27;;;4.00;99.90;;;;;;4965644;28;20051;-69
2021/01/29 03:27:04;;;;;;;19.93;9.50;;;4.10;99.90;;;;;;4976484;28;20135;-69
2021/01/29 03:29:37;;;;;;;24.87;10.47;;;4.10;99.90;;;;;;4975766;28;20050;-69
2021/01/29 03:32:06;;;;;;;24.00;10.43;;;4.00;99.90;;;;;;4966396;28;20055;-69
2021/01/29 03:34:39;;;;;;;23.43;10.70;;;4.00;99.90;;;;;;4975160;28;20042;-72
2021/01/29 03:37:14;;;;;;;22.40;10.57;;;4.10;99.90;;;;;;4978561;28;20051;-70
2021/01/29 03:39:41;;;;;;;21.33;10.00;;;4.10;99.90;;;;;;4966853;28;20091;-68
2021/01/29 03:42:25;;;;;;;26.00;10.17;;;4.10;99.90;;;;;;4974291;28;20069;-69
2021/01/29 03:45:00;;;;;;;21.17;9.53;;;4.20;99.90;;;;;;4966840;28;20100;-68
2021/01/29 03:47:36;;;;;;;19.90;9.50;;;4.20;99.90;;;;;;4966354;28;20084;-70
2021/01/29 03:50:14;;;;;;;19.85;9.75;;;4.20;99.90;;;;;;4966543;28;20105;-68
2021/01/29 03:52:48;;;;;;;20.23;9.83;;;4.30;99.90;;;;;;4973679;28;20047;-70
2021/01/29 03:55:22;;;;;;;22.50;10.17;;;4.20;99.90;;;;;;4975855;28;20249;-72
2021/01/29 03:57:58;;;;;;;20.23;10.47;;;4.30;99.90;;;;;;4976245;28;20492;-70
2021/01/29 04:00:35;;;;;;;22.45;9.55;;;4.30;99.90;;;;;;4966667;28;20060;-69
2021/01/29 04:03:08;;;;;;;19.80;9.93;;;4.30;99.90;;;;;;4964719;28;20051;-69
2021/01/29 04:05:43;;;;;;;22.03;10.13;;;4.20;99.90;;;;;;4978317;28;20065;-68
2021/01/29 04:08:18;;;;;;;19.40;8.07;;;4.20;99.90;;;;;;4976681;28;20049;-68
2021/01/29 04:10:48;;;;;;;21.03;8.20;;;4.30;99.90;;;;;;4966552;28;20056;-69
2021/01/29 04:13:21;;;;;;;18.40;7.93;;;4.30;99.90;;;;;;4973482;28;20062;-69
2021/01/29 04:15:49;;;;;;;16.33;7.77;;;4.30;99.90;;;;;;4976092;28;20073;-70
2021/01/29 04:18:23;;;;;;;17.40;7.73;;;4.40;99.90;;;;;;4977349;28;20109;-69
2021/01/29 04:20:54;;;;;;;15.33;7.03;;;4.30;99.90;;;;;;4976371;28;20043;-69
2021/01/29 04:23:24;;;;;;;18.37;7.90;;;4.40;99.90;;;;;;4965463;28;20161;-68
2021/01/29 04:25:57;;;;;;;15.90;7.20;;;4.40;99.90;;;;;;4974856;28;20500;-68
2021/01/29 04:28:27;;;;;;;16.20;7.50;;;4.40;99.90;;;;;;4966864;28;20051;-70
2021/01/29 04:33:31;;;;;;;15.73;7.40;;;4.50;99.90;;;;;;5075408;23;20052;-70
2021/01/29 04:36:00;;;;;;;14.97;6.97;;;4.50;99.90;;;;;;4997374;28;20510;-70
2021/01/29 04:38:36;;;;;;;14.83;6.97;;;4.50;99.90;;;;;;5000456;28;20046;-70
2021/01/29 04:41:12;;;;;;;14.70;7.18;;;4.50;99.90;;;;;;5003321;28;20244;-70
2021/01/29 04:44:06;;;;;;;16.73;7.43;;;4.50;99.90;;;;;;5002010;28;20050;-70
2021/01/29 04:46:47;;;;;;;18.47;8.00;;;4.50;99.90;;;;;;5003052;28;20197;-70
2021/01/29 04:49:37;;;;;;;15.37;7.30;;;4.50;99.90;;;;;;4984285;28;20397;-70
2021/01/29 04:52:41;;;;;;;15.23;7.60;;;4.60;99.90;;;;;;4983848;28;20061;-70
2021/01/29 04:55:46;;;;;;;14.13;7.43;;;4.60;99.90;;;;;;4986625;28;20047;-70
2021/01/29 04:58:15;;;;;;;18.50;8.40;;;4.60;99.90;;;;;;4987965;28;20104;-70
2021/01/29 05:01:22;;;;;;;15.90;7.40;;;4.60;99.90;;;;;;4988356;28;20133;-70
2021/01/29 05:04:36;;;;;;;18.43;9.53;;;4.60;99.90;;;;;;4987290;28;20408;-70
2021/01/29 05:07:30;;;;;;;19.57;8.77;;;4.70;99.90;;;;;;4997863;28;20042;-70
2021/01/29 05:10:16;;;;;;;23.00;9.23;;;4.70;99.90;;;;;;5002482;28;20054;-70
2021/01/29 05:13:16;;;;;;;24.57;9.80;;;4.80;99.90;;;;;;5002324;28;20077;-71
2021/01/29 05:16:10;;;;;;;25.00;9.73;;;4.70;99.90;;;;;;4998648;28;20825;-71
2021/01/29 05:19:01;;;;;;;21.00;9.87;;;4.70;99.90;;;;;;4997990;28;20128;-71
2021/01/29 05:21:53;;;;;;;27.13;10.33;;;4.70;99.90;;;;;;4999803;28;20750;-71
2021/01/29 05:25:09;;;;;;;28.57;10.23;;;4.80;99.90;;;;;;4960859;28;20503;-71
2021/01/29 05:28:05;;;;;;;30.63;11.53;;;4.90;99.90;;;;;;5000190;28;20058;-71
2021/01/29 05:30:45;;;;;;;32.57;11.90;;;4.80;99.90;;;;;;4976739;28;20053;-71
2021/01/29 05:33:32;;;;;;;33.47;14.23;;;4.80;99.90;;;;;;5003108;28;20405;-71
2021/01/29 05:36:22;;;;;;;47.63;18.08;;;4.90;99.90;;;;;;5000435;28;20064;-71
2021/01/29 05:39:19;;;;;;;47.33;16.93;;;4.80;99.90;;;;;;5005191;28;20038;-71
2021/01/29 05:42:23;;;;;;;40.65;15.35;;;4.90;99.90;;;;;;4992697;28;20054;-71
2021/01/29 05:45:03;;;;;;;33.40;13.50;;;4.90;99.90;;;;;;5004394;28;20400;-71
2021/01/29 05:48:05;;;;;;;28.80;11.63;;;4.90;99.90;;;;;;5005072;28;20455;-71
2021/01/29 05:50:51;;;;;;;22.73;11.60;;;5.00;99.90;;;;;;4999976;28;20080;-71
2021/01/29 05:53:33;;;;;;;24.40;11.03;;;5.10;99.90;;;;;;5002890;28;20691;-72
2021/01/29 05:56:04;;;;;;;28.57;11.60;;;5.10;99.90;;;;;;5004323;28;20107;-71
2021/01/29 05:59:17;;;;;;;29.27;12.00;;;5.10;99.90;;;;;;5003441;28;20053;-71
2021/01/29 06:01:56;;;;;;;27.60;11.77;;;5.10;99.90;;;;;;4916520;29;20055;-72
2021/01/29 06:04:43;;;;;;;34.23;12.60;;;5.10;99.90;;;;;;4908322;29;20059;-71
2021/01/29 06:07:46;;;;;;;33.08;12.70;;;5.10;99.90;;;;;;4974133;28;20053;-71
2021/01/29 06:11:01;;;;;;;34.93;13.23;;;5.20;99.90;;;;;;5006047;28;20099;-71
2021/01/29 06:13:45;;;;;;;38.87;13.77;;;5.10;99.90;;;;;;4984613;28;20053;-72
2021/01/29 06:16:43;;;;;;;35.77;13.50;;;5.10;99.90;;;;;;5006332;28;20054;-72
2021/01/29 06:19:33;;;;;;;46.78;14.40;;;5.20;99.90;;;;;;5005828;28;20046;-72
2021/01/29 06:22:29;;;;;;;46.47;14.77;;;5.20;99.90;;;;;;4994598;28;20060;-72
2021/01/29 06:25:30;;;;;;;42.17;14.50;;;5.30;99.90;;;;;;5005653;28;20046;-72
2021/01/29 06:28:20;;;;;;;35.43;13.77;;;5.30;99.90;;;;;;5006260;28;20076;-72
2021/01/29 06:31:15;;;;;;;33.80;13.60;;;5.30;99.90;;;;;;5005580;28;20495;-72
2021/01/29 06:34:14;;;;;;;35.03;13.68;;;5.30;99.90;;;;;;5004594;28;20061;-72
2021/01/29 06:36:58;;;;;;;30.70;12.40;;;5.40;99.90;;;;;;4985419;28;20038;-71
2021/01/29 06:39:45;;;;;;;27.13;12.47;;;5.40;99.90;;;;;;4986421;28;20082;-71
2021/01/29 06:42:35;;;;;;;23.33;9.95;;;5.50;99.90;;;;;;4986608;28;20054;-71
2021/01/29 06:45:29;;;;;;;23.47;10.53;;;5.50;99.90;;;;;;4986329;28;20706;-71
2021/01/29 06:48:26;;;;;;;27.23;11.33;;;5.60;99.90;;;;;;4985905;28;20066;-71
2021/01/29 06:51:15;;;;;;;23.87;11.23;;;5.60;99.90;;;;;;5003224;28;20053;-71
2021/01/29 06:54:09;;;;;;;24.80;11.00;;;5.70;99.90;;;;;;5002871;28;20129;-71
2021/01/29 06:57:05;;;;;;;27.00;11.23;;;5.60;99.90;;;;;;5006288;28;20045;-73
2021/01/29 06:59:49;;;;;;;27.33;11.37;;;5.70;99.90;;;;;;4986486;28;20137;-71
2021/01/29 07:02:56;;;;;;;22.37;10.23;;;5.70;99.90;;;;;;5003255;28;20049;-72
2021/01/29 07:05:45;;;;;;;23.93;10.60;;;5.70;99.90;;;;;;5001305;28;20047;-71
2021/01/29 07:08:27;;;;;;;25.00;10.63;;;5.80;99.90;;;;;;4996576;28;20062;-71
2021/01/29 07:11:22;;;;;;;23.50;11.10;;;5.80;99.90;;;;;;4998402;28;20088;-71
2021/01/29 07:14:15;;;;;;;28.17;11.80;;;5.80;99.90;;;;;;5001082;28;20043;-71
2021/01/29 07:16:57;;;;;;;28.97;12.83;;;5.90;99.90;;;;;;4998522;28;20451;-71
2021/01/29 07:19:45;;;;;;;31.92;13.60;;;5.90;99.90;;;;;;4991500;28;20053;-71
2021/01/29 07:22:47;;;;;;;29.27;11.95;;;6.00;99.90;;;;;;4992547;28;20085;-71
2021/01/29 07:25:20;;;;;;;28.52;11.65;;;6.00;99.90;;;;;;4998366;28;20057;-71
2021/01/29 07:27:55;;;;;;;33.90;12.98;;;6.10;99.90;;;;;;4998640;28;20050;-71
2021/01/29 07:30:47;;;;;;;27.60;12.93;;;6.10;99.90;;;;;;4998221;28;20052;-71
2021/01/29 07:33:22;;;;;;;28.88;13.15;;;6.10;99.90;;;;;;4996138;28;20423;-71
2021/01/29 07:36:11;;;;;;;30.30;13.63;;;6.20;99.90;;;;;;4998782;28;20046;-71
2021/01/29 07:39:08;;;;;;;32.20;12.82;;;6.30;99.90;;;;;;4999049;28;20053;-70
2021/01/29 07:41:48;;;;;;;27.13;11.13;;;6.30;99.90;;;;;;4998072;28;20043;-71
2021/01/29 07:44:35;;;;;;;21.52;10.40;;;6.50;99.90;;;;;;4999687;28;20073;-71
2021/01/29 07:47:21;;;;;;;19.50;10.48;;;6.60;99.90;;;;;;5001930;28;20148;-71
2021/01/29 07:50:20;;;;;;;20.95;9.02;;;6.80;99.90;;;;;;4998570;28;20379;-71
2021/01/29 07:52:55;;;;;;;16.80;8.43;;;6.90;99.90;;;;;;5001175;28;20076;-71
2021/01/29 07:55:24;;;;;;;14.07;6.95;;;7.00;99.90;;;;;;4996250;28;20050;-71
2021/01/29 07:58:24;;;;;;;16.35;7.30;;;7.10;99.90;;;;;;4998209;28;20042;-70
2021/01/29 08:01:26;;;;;;;11.30;5.60;;;7.20;99.90;;;;;;4992360;28;20423;-71
2021/01/29 08:04:17;;;;;;;9.70;4.97;;;7.30;99.90;;;;;;4968435;28;20499;-71
2021/01/29 08:06:50;;;;;;;10.60;5.22;;;7.40;99.90;;;;;;4988077;28;20326;-71
2021/01/29 08:09:24;;;;;;;9.63;4.63;;;7.50;99.90;;;;;;5006962;28;20111;-71
2021/01/29 08:11:55;;;;;;;9.07;3.72;;;7.60;99.90;;;;;;4999358;28;20076;-71
2021/01/29 08:14:54;;;;;;;9.98;4.65;;;7.60;99.90;;;;;;5006931;28;20065;-71
2021/01/29 08:17:44;;;;;;;7.30;3.90;;;7.60;99.90;;;;;;4987656;28;20184;-71
2021/01/29 08:20:29;;;;;;;7.05;3.53;;;7.70;99.90;;;;;;4995945;28;20439;-71
2021/01/29 08:23:08;;;;;;;7.93;3.65;;;7.70;99.90;;;;;;4996935;28;20077;-71
2021/01/29 08:25:44;;;;;;;7.53;3.45;;;7.80;99.90;;;;;;5004049;28;20046;-71
2021/01/29 08:29:02;;;;;;;7.10;3.53;;;7.80;99.90;;;;;;5005659;28;20057;-72
2021/01/29 08:31:49;;;;;;;7.18;3.00;;;7.80;99.90;;;;;;4963701;28;20092;-73
2021/01/29 08:34:35;;;;;;;9.52;3.13;;;7.90;99.90;;;;;;4959787;28;20054;-73
2021/01/29 08:37:28;;;;;;;5.00;2.28;;;7.90;99.90;;;;;;4992796;28;20841;-73
2021/01/29 08:40:15;;;;;;;3.90;1.70;;;8.00;99.90;;;;;;4989963;28;20057;-74
2021/01/29 08:43:00;;;;;;;3.13;1.50;;;8.10;99.90;;;;;;4994028;28;20058;-73
2021/01/29 08:45:39;;;;;;;1.20;0.70;;;8.10;99.90;;;;;;5003697;28;20184;-75
2021/01/29 08:48:22;;;;;;;1.65;0.80;;;8.30;99.90;;;;;;5003588;28;20057;-74
2021/01/29 08:51:04;;;;;;;2.20;1.15;;;8.40;99.90;;;;;;5002964;28;20050;-73
2021/01/29 08:54:08;;;;;;;2.22;0.70;;;8.40;99.90;;;;;;5001538;28;20226;-73
2021/01/29 08:56:43;;;;;;;2.90;1.00;;;8.60;99.90;;;;;;5003779;28;20058;-75
2021/01/29 08:59:15;;;;;;;1.45;0.85;;;8.60;99.90;;;;;;5003845;28;20046;-75
2021/01/29 09:01:48;;;;;;;0.88;0.70;;;8.60;99.90;;;;;;5005233;28;20058;-78
2021/01/29 09:04:23;;;;;;;0.68;0.30;;;8.50;99.90;;;;;;4995588;28;20049;-77
2021/01/29 09:06:52;;;;;;;0.88;0.40;;;8.60;99.90;;;;;;4998711;28;20064;-72
2021/01/29 09:09:22;;;;;;;0.25;0.25;;;8.50;99.90;;;;;;5003698;28;20185;-75
2021/01/29 09:11:51;;;;;;;0.25;0.25;;;8.50;99.90;;;;;;4988067;28;20050;-76
2021/01/29 09:14:24;;;;;;;0.20;0.20;;;8.50;99.90;;;;;;5004861;28;20132;-76
2021/01/29 09:17:03;;;;;;;0.20;0.20;;;8.50;99.90;;;;;;5004418;28;20439;-76
2021/01/29 09:19:31;;;;;;;1.33;0.38;;;8.50;99.90;;;;;;5003136;28;20502;-74
2021/01/29 09:22:09;;;;;;;0.20;0.20;;;8.40;99.90;;;;;;5005412;28;20046;-77
2021/01/29 09:24:44;;;;;;;0.20;0.10;;;8.40;99.90;;;;;;5003312;28;20068;-75
2021/01/29 09:27:46;;;;;;;1.20;0.40;;;8.30;99.90;;;;;;5003901;28;20050;-77
2021/01/29 09:30:19;;;;;;;0.35;0.05;;;8.30;99.90;;;;;;4987825;28;20050;-78
2021/01/29 09:32:52;;;;;;;1.08;0.30;;;8.30;99.90;;;;;;5004327;28;20057;-78
2021/01/29 09:35:29;;;;;;;0.57;0.20;;;8.30;99.90;;;;;;4999697;28;20051;-79
2021/01/29 09:37:57;;;;;;;2.92;0.63;;;8.20;99.90;;;;;;4983468;28;20133;-75
2021/01/29 09:40:28;;;;;;;0.65;0.30;;;8.20;99.90;;;;;;4985321;28;20138;-76
2021/01/29 09:43:11;;;;;;;0.20;0.10;;;8.10;99.90;;;;;;4997921;28;20496;-76
2021/01/29 09:45:39;;;;;;;2.70;1.52;;;8.20;99.90;;;;;;4995331;28;20479;-75
2021/01/29 09:48:11;;;;;;;0.73;0.22;;;8.10;99.90;;;;;;4999806;28;20594;-75
2021/01/29 09:50:39;;;;;;;3.17;0.52;;;8.10;99.90;;;;;;5007098;28;20144;-75
2021/01/29 09:53:21;;;;;;;0.98;0.40;;;8.10;99.90;;;;;;4993603;28;20818;-73
2021/01/29 09:55:56;;;;;;;1.10;0.50;;;8.00;99.90;;;;;;4999998;28;20049;-73
2021/01/29 09:58:31;;;;;;;0.98;0.50;;;8.00;99.90;;;;;;4998774;28;20114;-74
2021/01/29 10:01:04;;;;;;;0.20;0.20;;;8.00;99.90;;;;;;5005320;28;20339;-75
2021/01/29 10:03:38;;;;;;;1.27;0.50;;;8.00;99.90;;;;;;5000787;28;20096;-74
2021/01/29 10:06:09;;;;;;;0.20;0.20;;;7.90;99.90;;;;;;5000222;28;20077;-75
2021/01/29 10:08:39;;;;;;;1.35;0.38;;;8.00;99.90;;;;;;4999889;28;20054;-74
2021/01/29 10:11:12;;;;;;;4.75;0.40;;;8.00;99.90;;;;;;4995838;28;20510;-75
2021/01/29 10:14:05;;;;;;;1.27;0.10;;;8.00;99.90;;;;;;4998477;28;20059;-75
2021/01/29 10:16:42;;;;;;;1.33;0.50;;;8.00;99.90;;;;;;4996172;28;20186;-74
2021/01/29 10:19:21;;;;;;;0.20;0.20;;;7.90;99.90;;;;;;4995114;28;20046;-74
2021/01/29 10:22:27;;;;;;;0.35;0.32;;;7.90;99.90;;;;;;5000403;28;20053;-73
2021/01/29 10:25:06;;;;;;;0.98;0.43;;;7.90;99.90;;;;;;4988256;28;20050;-74
2021/01/29 10:27:38;;;;;;;0.50;0.40;;;7.90;99.90;;;;;;4996489;28;20137;-73
2021/01/29 10:30:11;;;;;;;3.20;0.30;;;7.90;99.90;;;;;;4995901;28;20104;-73
2021/01/29 10:32:38;;;;;;;2.17;0.52;;;8.00;99.90;;;;;;5075131;22;20050;-75
2021/01/29 10:35:18;;;;;;;1.88;0.50;;;7.90;99.90;;;;;;4981669;28;20042;-75
2021/01/29 10:37:54;;;;;;;1.70;0.70;;;7.90;99.90;;;;;;4978672;28;20078;-76
2021/01/29 10:40:27;;;;;;;4.57;1.02;;;8.00;99.90;;;;;;4966458;28;20047;-76
2021/01/29 10:43:13;;;;;;;5.63;1.33;;;7.90;99.90;;;;;;4950898;28;20055;-75
2021/01/29 10:45:57;;;;;;;3.97;0.90;;;7.90;99.90;;;;;;4955189;28;20512;-76
2021/01/29 10:48:46;;;;;;;2.75;0.90;;;8.00;99.90;;;;;;4952350;28;20078;-76
2021/01/29 10:51:23;;;;;;;4.25;0.82;;;8.00;99.90;;;;;;4958886;28;20054;-76
2021/01/29 10:53:56;;;;;;;2.22;0.70;;;8.10;99.90;;;;;;4960566;28;20050;-74
2021/01/29 10:56:27;;;;;;;4.55;0.75;;;8.10;99.90;;;;;;4956214;28;20717;-74
2021/01/29 10:58:58;;;;;;;3.75;1.40;;;8.10;99.90;;;;;;4957778;28;20047;-74
2021/01/29 11:01:33;;;;;;;5.88;1.13;;;8.20;99.90;;;;;;4958874;28;20055;-74
2021/01/29 11:04:04;;;;;;;1.58;0.70;;;8.10;99.90;;;;;;4953519;28;20465;-75
2021/01/29 11:06:44;;;;;;;6.93;0.85;;;8.10;99.90;;;;;;4949715;29;20150;-75
2021/01/29 11:09:26;;;;;;;4.55;1.08;;;8.20;99.90;;;;;;4957899;28;20054;-75
2021/01/29 11:12:06;;;;;;;2.70;0.63;;;8.30;99.90;;;;;;4958259;28;20497;-75
2021/01/29 11:14:36;;;;;;;4.45;1.02;;;8.30;99.90;;;;;;4959861;28;20043;-75
2021/01/29 11:17:08;;;;;;;6.05;1.27;;;8.30;99.90;;;;;;4957927;28;20575;-74
2021/01/29 11:19:39;;;;;;;3.78;1.08;;;8.30;99.90;;;;;;4960703;28;20047;-74
2021/01/29 11:22:36;;;;;;;7.15;1.92;;;8.30;99.90;;;;;;4956677;28;20047;-75
2021/01/29 11:25:28;;;;;;;8.48;1.00;;;8.30;99.90;;;;;;4955830;28;20386;-75
2021/01/29 11:28:02;;;;;;;6.50;2.50;;;8.30;99.90;;;;;;4952713;28;20441;-75
2021/01/29 11:30:33;;;;;;;5.57;0.98;;;8.40;99.90;;;;;;4952643;28;20063;-75
2021/01/29 11:33:02;;;;;;;9.02;1.50;;;8.40;99.90;;;;;;4955995;28;20151;-75
2021/01/29 11:35:46;;;;;;;3.50;1.02;;;8.50;99.90;;;;;;4954828;28;20047;-75
2021/01/29 11:38:49;;;;;;;8.70;1.60;;;8.50;99.90;;;;;;4952811;28;20059;-76
2021/01/29 11:41:26;;;;;;;5.68;1.08;;;8.60;99.90;;;;;;4947726;28;20493;-75
2021/01/29 11:44:01;;;;;;;8.98;3.47;;;8.60;99.90;;;;;;4958585;28;20069;-75
2021/01/29 11:46:30;;;;;;;6.20;1.48;;;8.60;99.90;;;;;;4963914;28;20591;-75
2021/01/29 11:49:08;;;;;;;5.72;1.27;;;8.70;99.90;;;;;;4964240;28;20051;-76
2021/01/29 11:51:38;;;;;;;9.20;1.58;;;8.70;99.90;;;;;;4959016;28;20126;-75
2021/01/29 11:54:13;;;;;;;7.65;1.65;;;8.70;99.90;;;;;;4950129;28;20051;-76
2021/01/29 11:56:47;;;;;;;6.53;1.75;;;8.70;99.90;;;;;;4955749;28;20043;-76
2021/01/29 11:59:28;;;;;;;8.05;1.17;;;8.70;99.90;;;;;;4952056;28;20195;-74
2021/01/29 12:02:02;;;;;;;9.85;2.42;;;8.80;99.90;;;;;;4952098;28;20051;-76
2021/01/29 12:04:35;;;;;;;7.78;1.10;;;8.80;99.90;;;;;;4949481;28;20130;-77
2021/01/29 12:07:06;;;;;;;7.03;1.55;;;8.80;99.90;;;;;;4960850;28;20105;-76
2021/01/29 12:09:45;;;;;;;6.45;1.20;;;8.80;99.90;;;;;;4952363;28;20055;-77
2021/01/29 12:12:20;;;;;;;10.25;1.83;;;8.80;99.90;;;;;;4948448;28;20059;-73
2021/01/29 12:15:12;;;;;;;8.82;1.45;;;9.00;99.90;;;;;;4958722;28;20106;-74
2021/01/29 12:17:41;;;;;;;11.13;1.50;;;8.90;99.90;;;;;;4964132;28;20440;-74
2021/01/29 12:20:10;;;;;;;18.95;5.00;;;9.00;99.90;;;;;;4966030;28;20110;-74
2021/01/29 12:22:42;;;;;;;3.60;0.93;;;9.00;99.90;;;;;;4960348;28;20047;-73
2021/01/29 12:25:49;;;;;;;6.95;1.45;;;9.10;99.90;;;;;;4967584;28;20365;-74
2021/01/29 12:28:32;;;;;;;8.68;1.52;;;9.00;99.90;;;;;;4968315;28;20051;-74
2021/01/29 12:31:11;;;;;;;9.73;1.73;;;9.10;99.90;;;;;;4967901;28;20074;-74
2021/01/29 12:33:50;;;;;;;7.07;1.25;;;9.10;99.90;;;;;;4966298;28;20050;-74
2021/01/29 12:36:20;;;;;;;5.90;1.02;;;9.10;99.90;;;;;;4967038;28;20497;-73
2021/01/29 12:38:54;;;;;;;4.95;1.02;;;9.20;99.90;;;;;;4967183;28;20520;-74
2021/01/29 12:41:29;;;;;;;5.22;1.08;;;9.30;99.90;;;;;;4967106;28;20101;-74
2021/01/29 12:44:31;;;;;;;7.95;1.13;;;9.30;99.90;;;;;;4959283;28;20519;-74
2021/01/29 12:47:07;;;;;;;6.82;1.40;;;9.20;99.90;;;;;;4955222;28;20047;-74
2021/01/29 12:49:51;;;;;;;8.38;1.70;;;9.30;99.90;;;;;;4963280;28;20530;-74
2021/01/29 12:52:25;;;;;;;7.78;2.05;;;9.30;99.90;;;;;;4961249;28;20207;-74
2021/01/29 12:55:01;;;;;;;11.95;1.67;;;9.40;99.90;;;;;;4964500;28;20050;-73
2021/01/29 12:57:31;;;;;;;6.40;1.40;;;9.30;99.90;;;;;;4967321;28;20055;-74
2021/01/29 13:00:10;;;;;;;6.57;1.30;;;9.40;99.90;;;;;;4967388;28;20055;-73
2021/01/29 13:03:02;;;;;;;5.03;1.40;;;9.40;99.90;;;;;;4965933;28;20054;-73
2021/01/29 13:05:42;;;;;;;5.30;1.20;;;9.50;99.90;;;;;;4966193;28;20055;-73
2021/01/29 13:08:26;;;;;;;8.70;1.67;;;9.50;99.90;;;;;;4966766;28;20097;-73
2021/01/29 13:11:03;;;;;;;8.07;1.90;;;9.60;99.90;;;;;;4962482;28;20051;-73
2021/01/29 13:13:38;;;;;;;8.27;1.50;;;9.60;99.90;;;;;;4956249;28;20065;-73
2021/01/29 13:16:12;;;;;;;9.55;1.92;;;9.60;99.90;;;;;;4958075;28;20459;-73
2021/01/29 13:18:56;;;;;;;9.38;1.33;;;9.70;99.90;;;;;;4965161;28;20113;-73
2021/01/29 13:21:28;;;;;;;5.45;1.08;;;9.60;99.90;;;;;;4971449;28;20054;-73
2021/01/29 13:23:56;;;;;;;8.02;1.40;;;9.60;99.90;;;;;;4969341;28;20062;-73
2021/01/29 13:26:35;;;;;;;7.57;1.60;;;9.50;99.90;;;;;;4969617;28;20058;-73
2021/01/29 13:29:05;;;;;;;14.68;3.33;;;9.60;99.90;;;;;;4970497;28;20043;-74
2021/01/29 13:31:35;;;;;;;9.30;2.15;;;9.70;99.90;;;;;;4970670;28;20050;-73
2021/01/29 13:34:11;;;;;;;6.13;1.60;;;9.80;99.90;;;;;;4970387;28;20050;-73
2021/01/29 13:36:38;;;;;;;8.00;1.38;;;9.80;99.90;;;;;;4969450;28;20042;-73
2021/01/29 13:39:16;;;;;;;5.88;1.23;;;9.90;99.90;;;;;;4971607;28;20114;-73
2021/01/29 13:41:49;;;;;;;7.47;1.90;;;9.90;99.90;;;;;;4971702;28;20075;-73
2021/01/29 13:44:30;;;;;;;9.57;1.10;;;9.90;99.90;;;;;;4971115;28;20051;-73
2021/01/29 13:46:57;;;;;;;6.63;1.02;;;9.80;99.90;;;;;;4970469;28;20051;-73
2021/01/29 13:49:31;;;;;;;4.28;1.23;;;9.80;99.90;;;;;;4971339;28;20063;-73